Accueil
METAR-TAF:

METAR-TAF

Aéroports :

Aéroport de Magenta

Nouméa, Nouvelle-Calédonie

latitude: 22-15-30S, longitude: 166-28-22E, altitude: 3 m

METAR: absent

Heure: 19:05 (08:05 UTC)

Prévision

Le bulletin a été fait il y a 3 heures et 5 minutes, à 05:00 UTC
Prévision valable du 27 à 06 UTC au 28 à 06 UTC
Vent 12 kt de sud/sud-est
Visibilité 10 km ou plus
Nuages épars à une hauteur de 3500 ft
Nuages fragmentés à une hauteur de 5000 ft
Evoluant progressivement
du 27 à 07 UTC au 27 à 10 UTC
Vent 8 kt de est
Evoluant progressivement
du 27 à 22 UTC au 27 à 24 UTC
Vent 10 kt de sud/sud-est

TAF: NWWM 270500Z 2706/2806 15012KT 9999 SCT035 BKN050 BECMG 2707/2710 08008KT BECMG 2722/2724 16010KT

Observations et prévisions météorologiques de plus de 4000 aéroports (messages METAR et TAF).

Les stations disponibles sont représentées par des disques jaunes et rouges sur la carte.

Passer la souris dessus pour voir le nom de la station.

Cliquer dessus pour voir les observations et prévisions météorologiques.

Pour changer de carte: cliquez sur les boutons verts avec une croix noire pour zoomer, sur le bouton vert avec un tiret pour effectuer un zoom arrière, ou sur les flèches vertes pour les cartes adjacentes.


METAR-TAF: